Time,TemperatureF,DewpointF,PressureIn,WindDirection,WindDirectionDegrees,WindSpeedMPH,WindSpeedGustMPH,Humidity,HourlyPrecipIn,Conditions,Clouds,dailyrainin,SoftwareType,DateUTC
2015-05-05 00:00:00,73.7,66.0,30.15,NNE,13,0.0,0.0,77,0.00,,,0.00,Wunderground v.1.15,2015-05-05 04:00:00,
2015-05-05 00:10:00,73.7,66.0,30.16,NNE,13,0.0,0.0,77,0.00,,,0.00,Wunderground v.1.15,2015-05-05 04:10:00,
2015-05-05 00:15:00,73.8,66.5,30.16,NNE,13,0.0,0.0,78,0.00,,,0.00,Wunderground v.1.15,2015-05-05 04:15:00,
2015-05-05 00:20:00,73.9,66.6,30.16,ENE,78,0.0,0.0,78,0.00,,,0.00,Wunderground v.1.15,2015-05-05 04:20:00,
2015-05-05 00:25:00,74.0,66.7,30.16,East,79,0.0,0.0,78,0.00,,,0.00,Wunderground v.1.15,2015-05-05 04:25:00,
2015-05-05 00:30:00,74.0,66.7,30.16,East,87,0.0,0.0,78,0.00,,,0.00,Wunderground v.1.15,2015-05-05 04:30:00,
2015-05-05 00:35:00,74.0,66.7,30.16,East,87,0.0,0.0,78,0.00,,,0.00,Wunderground v.1.15,2015-05-05 04:35:00,
2015-05-05 00:45:00,74.0,67.1,30.15,SE,139,0.0,0.0,79,0.00,,,0.00,Wunderground v.1.15,2015-05-05 04:45:00,
2015-05-05 00:50:00,74.1,67.2,30.15,SE,137,0.0,0.0,79,0.00,,,0.00,Wunderground v.1.15,2015-05-05 04:50:00,
2015-05-05 00:55:00,74.1,66.8,30.14,SE,136,0.0,0.0,78,0.00,,,0.00,Wunderground v.1.15,2015-05-05 04:55:00,
2015-05-05 01:00:00,74.1,66.8,30.15,SE,136,0.0,0.0,78,0.00,,,0.00,Wunderground v.1.15,2015-05-05 05:00:00,
2015-05-05 01:10:00,74.0,66.7,30.14,SE,131,0.0,0.0,78,0.00,,,0.00,Wunderground v.1.15,2015-05-05 05:10:00,
2015-05-05 01:20:00,74.0,67.1,30.14,ESE,104,0.0,0.0,79,0.00,,,0.00,Wunderground v.1.15,2015-05-05 05:20:00,
2015-05-05 01:25:00,74.0,67.4,30.13,ESE,104,0.0,0.0,80,0.00,,,0.00,Wunderground v.1.15,2015-05-05 05:25:00,
2015-05-05 01:35:00,74.0,67.4,30.13,ESE,105,0.0,0.0,80,0.00,,,0.00,Wunderground v.1.15,2015-05-05 05:35:00,
2015-05-05 01:40:00,74.0,67.4,30.13,ESE,104,0.0,0.0,80,0.00,,,0.00,Wunderground v.1.15,2015-05-05 05:40:00,
2015-05-05 01:45:00,74.1,67.5,30.13,ESE,107,0.0,0.0,80,0.00,,,0.00,Wunderground v.1.15,2015-05-05 05:45:00,
2015-05-05 01:55:00,74.2,67.6,30.12,ESE,107,0.0,0.0,80,0.00,,,0.00,Wunderground v.1.15,2015-05-05 05:55:00,
2015-05-05 02:00:00,74.2,67.6,30.12,ESE,107,0.0,0.0,80,0.00,,,0.00,Wunderground v.1.15,2015-05-05 06:00:00,
2015-05-05 02:10:00,74.2,67.3,30.12,ESE,111,0.0,0.0,79,0.00,,,0.00,Wunderground v.1.15,2015-05-05 06:10:00,
2015-05-05 02:15:00,74.3,67.4,30.12,East,86,0.0,0.0,79,0.00,,,0.00,Wunderground v.1.15,2015-05-05 06:15:00,
2015-05-05 02:20:00,74.4,67.8,30.11,East,87,0.0,0.0,80,0.00,,,0.00,Wunderground v.1.15,2015-05-05 06:20:00,
2015-05-05 02:30:00,74.3,67.7,30.11,East,90,0.0,0.0,80,0.00,,,0.00,Wunderground v.1.15,2015-05-05 06:30:00,
2015-05-05 02:35:00,74.2,67.6,30.11,East,87,0.0,0.0,80,0.00,,,0.00,Wunderground v.1.15,2015-05-05 06:35:00,
2015-05-05 02:40:00,74.2,67.6,30.11,East,88,0.0,0.0,80,0.00,,,0.00,Wunderground v.1.15,2015-05-05 06:40:00,
2015-05-05 02:45:00,74.1,67.5,30.11,East,91,0.0,1.0,80,0.00,,,0.00,Wunderground v.1.15,2015-05-05 06:45:00,
2015-05-05 02:50:00,74.0,67.4,30.11,East,90,0.0,0.0,80,0.00,,,0.00,Wunderground v.1.15,2015-05-05 06:50:00,
2015-05-05 02:55:00,74.0,67.4,30.11,ESE,115,0.0,0.0,80,0.00,,,0.00,Wunderground v.1.15,2015-05-05 06:55:00,
2015-05-05 03:00:00,74.0,67.4,30.10,NE,56,0.0,0.0,80,0.00,,,0.00,Wunderground v.1.15,2015-05-05 07:00:00,
2015-05-05 03:10:00,74.0,67.4,30.10,ENE,57,0.0,0.0,80,0.00,,,0.00,Wunderground v.1.15,2015-05-05 07:10:00,
2015-05-05 03:15:00,74.1,68.3,30.10,East,96,0.0,3.0,82,0.00,,,0.01,Wunderground v.1.15,2015-05-05 07:15:00,
2015-05-05 03:20:00,73.0,68.6,30.10,SE,129,1.0,1.0,86,0.14,,,0.02,Wunderground v.1.15,2015-05-05 07:20:00,
2015-05-05 03:25:00,72.4,68.6,30.11,ESE,115,1.0,1.0,88,0.16,,,0.04,Wunderground v.1.15,2015-05-05 07:25:00,
2015-05-05 03:30:00,71.8,68.1,30.11,ESE,112,0.0,0.0,88,0.23,,,0.06,Wunderground v.1.15,2015-05-05 07:30:00,
2015-05-05 03:35:00,71.2,67.8,30.11,East,96,0.0,0.0,89,0.10,,,0.06,Wunderground v.1.15,2015-05-05 07:35:00,
2015-05-05 03:45:00,70.7,67.3,30.11,East,91,0.0,0.0,89,0.07,,,0.07,Wunderground v.1.15,2015-05-05 07:45:00,
2015-05-05 03:50:00,70.6,67.5,30.11,East,90,0.0,0.0,90,0.04,,,0.07,Wunderground v.1.15,2015-05-05 07:50:00,
2015-05-05 03:55:00,70.5,67.4,30.11,East,90,0.0,0.0,90,0.00,,,0.07,Wunderground v.1.15,2015-05-05 07:55:00,
2015-05-05 04:00:00,70.5,67.7,30.11,East,90,0.0,0.0,91,0.00,,,0.07,Wunderground v.1.15,2015-05-05 08:00:00,
2015-05-05 04:10:00,70.6,67.8,30.10,NNE,23,0.0,0.0,91,0.00,,,0.07,Wunderground v.1.15,2015-05-05 08:10:00,
2015-05-05 04:20:00,70.7,67.9,30.10,NNE,22,0.0,0.0,91,0.00,,,0.07,Wunderground v.1.15,2015-05-05 08:20:00,
2015-05-05 04:25:00,70.7,67.9,30.10,NNE,21,0.0,0.0,91,0.00,,,0.07,Wunderground v.1.15,2015-05-05 08:25:00,
2015-05-05 04:30:00,70.6,67.8,30.10,NNE,21,0.0,0.0,91,0.00,,,0.07,Wunderground v.1.15,2015-05-05 08:30:00,
2015-05-05 04:35:00,70.6,67.8,30.10,NNE,21,0.0,0.0,91,0.00,,,0.07,Wunderground v.1.15,2015-05-05 08:35:00,
2015-05-05 04:40:00,70.6,68.2,30.10,NNE,21,0.0,0.0,92,0.00,,,0.07,Wunderground v.1.15,2015-05-05 08:40:00,
2015-05-05 04:45:00,70.7,68.3,30.09,NNE,21,0.0,0.0,92,0.00,,,0.07,Wunderground v.1.15,2015-05-05 08:45:00,
2015-05-05 04:50:00,70.8,68.4,30.09,NNE,21,0.0,0.0,92,0.00,,,0.07,Wunderground v.1.15,2015-05-05 08:50:00,
2015-05-05 04:55:00,70.9,68.5,30.09,NNW,339,0.0,0.0,92,0.00,,,0.07,Wunderground v.1.15,2015-05-05 08:55:00,
2015-05-05 05:05:00,71.0,68.6,30.09,NNW,340,0.0,0.0,92,0.00,,,0.07,Wunderground v.1.15,2015-05-05 09:05:00,
2015-05-05 05:10:00,71.0,68.6,30.09,NNW,340,0.0,0.0,92,0.00,,,0.07,Wunderground v.1.15,2015-05-05 09:10:00,
2015-05-05 05:15:00,70.9,68.1,30.09,NNW,340,0.0,0.0,91,0.00,,,0.07,Wunderground v.1.15,2015-05-05 09:15:00,
2015-05-05 05:20:00,71.0,68.2,30.09,NNW,340,0.0,0.0,91,0.00,,,0.08,Wunderground v.1.15,2015-05-05 09:20:00,
2015-05-05 05:25:00,71.0,68.2,30.09,NNW,340,0.0,0.0,91,0.00,,,0.08,Wunderground v.1.15,2015-05-05 09:25:00,
2015-05-05 05:30:00,71.0,68.2,30.09,NNW,340,0.0,0.0,91,0.00,,,0.08,Wunderground v.1.15,2015-05-05 09:30:00,
2015-05-05 05:40:00,71.0,68.2,30.09,ENE,66,0.0,0.0,91,0.00,,,0.08,Wunderground v.1.15,2015-05-05 09:40:00,
2015-05-05 05:45:00,71.0,67.9,30.09,ENE,61,0.0,0.0,90,0.00,,,0.08,Wunderground v.1.15,2015-05-05 09:45:00,
2015-05-05 05:50:00,71.1,68.0,30.09,ENE,66,0.0,0.0,90,0.00,,,0.08,Wunderground v.1.15,2015-05-05 09:50:00,
2015-05-05 05:55:00,71.4,68.0,30.09,NE,34,0.0,2.0,89,0.00,,,0.08,Wunderground v.1.15,2015-05-05 09:55:00,
2015-05-05 06:00:00,71.7,68.0,30.09,NE,35,0.0,0.0,88,0.00,,,0.08,Wunderground v.1.15,2015-05-05 10:00:00,
2015-05-05 06:10:00,72.1,68.0,30.10,East,101,0.0,0.0,87,0.00,,,0.08,Wunderground v.1.15,2015-05-05 10:10:00,
2015-05-05 06:15:00,72.3,67.9,30.10,East,83,0.0,0.0,86,0.00,,,0.08,Wunderground v.1.15,2015-05-05 10:15:00,
2015-05-05 06:20:00,72.5,67.7,30.10,East,90,0.0,0.0,85,0.00,,,0.08,Wunderground v.1.15,2015-05-05 10:20:00,
2015-05-05 06:25:00,72.5,67.7,30.10,East,91,0.0,0.0,85,0.00,,,0.08,Wunderground v.1.15,2015-05-05 10:25:00,
2015-05-05 06:30:00,72.5,67.7,30.10,NE,42,0.0,0.0,85,0.00,,,0.08,Wunderground v.1.15,2015-05-05 10:30:00,
2015-05-05 06:35:00,72.5,67.7,30.10,ESE,105,0.0,0.0,85,0.00,,,0.08,Wunderground v.1.15,2015-05-05 10:35:00,
2015-05-05 06:40:00,72.5,68.1,30.10,ESE,105,0.0,0.0,86,0.00,,,0.08,Wunderground v.1.15,2015-05-05 10:40:00,
2015-05-05 06:45:00,72.6,67.8,30.11,SE,129,0.0,0.0,85,0.00,,,0.08,Wunderground v.1.15,2015-05-05 10:45:00,
2015-05-05 06:55:00,73.1,67.6,30.11,ESE,122,0.0,0.0,83,0.00,,,0.08,Wunderground v.1.15,2015-05-05 10:55:00,
2015-05-05 07:00:00,73.3,67.5,30.11,SSE,166,0.0,0.0,82,0.00,,,0.08,Wunderground v.1.15,2015-05-05 11:00:00,
2015-05-05 07:10:00,73.4,67.6,30.11,ESE,106,0.0,0.0,82,0.00,,,0.08,Wunderground v.1.15,2015-05-05 11:10:00,
2015-05-05 07:15:00,73.4,67.6,30.12,ESE,105,0.0,0.0,82,0.00,,,0.08,Wunderground v.1.15,2015-05-05 11:15:00,
2015-05-05 07:20:00,73.5,68.0,30.12,ESE,105,0.0,0.0,83,0.00,,,0.08,Wunderground v.1.15,2015-05-05 11:20:00,
2015-05-05 07:30:00,73.3,67.5,30.12,ESE,113,0.0,0.0,82,0.00,,,0.08,Wunderground v.1.15,2015-05-05 11:30:00,
2015-05-05 07:35:00,73.3,67.5,30.12,SE,129,0.0,1.0,82,0.00,,,0.08,Wunderground v.1.15,2015-05-05 11:35:00,
2015-05-05 07:40:00,73.3,67.5,30.12,East,89,0.0,0.0,82,0.00,,,0.08,Wunderground v.1.15,2015-05-05 11:40:00,
2015-05-05 07:45:00,73.3,67.1,30.13,East,99,0.0,0.0,81,0.00,,,0.08,Wunderground v.1.15,2015-05-05 11:45:00,
2015-05-05 07:50:00,73.4,67.6,30.13,East,90,0.0,0.0,82,0.00,,,0.08,Wunderground v.1.15,2015-05-05 11:50:00,
2015-05-05 07:55:00,73.4,67.6,30.13,ENE,68,0.0,0.0,82,0.00,,,0.08,Wunderground v.1.15,2015-05-05 11:55:00,
2015-05-05 08:05:00,73.4,66.9,30.13,NE,51,0.0,0.0,80,0.00,,,0.08,Wunderground v.1.15,2015-05-05 12:05:00,
2015-05-05 08:10:00,73.4,66.1,30.13,East,90,0.0,0.0,78,0.00,,,0.08,Wunderground v.1.15,2015-05-05 12:10:00,
2015-05-05 08:15:00,73.5,66.2,30.13,NE,42,0.0,0.0,78,0.00,,,0.08,Wunderground v.1.15,2015-05-05 12:15:00,
2015-05-05 08:20:00,73.6,65.9,30.13,SE,125,0.0,0.0,77,0.00,,,0.08,Wunderground v.1.15,2015-05-05 12:20:00,
2015-05-05 08:25:00,73.7,66.0,30.13,NNE,33,0.0,0.0,77,0.00,,,0.08,Wunderground v.1.15,2015-05-05 12:25:00,
2015-05-05 08:30:00,73.8,65.8,30.13,NE,38,0.0,0.0,76,0.00,,,0.08,Wunderground v.1.15,2015-05-05 12:30:00,
2015-05-05 08:40:00,74.1,66.4,30.13,NNE,32,0.0,0.0,77,0.00,,,0.08,Wunderground v.1.15,2015-05-05 12:40:00,
2015-05-05 08:45:00,74.2,66.5,30.13,NE,53,0.0,0.0,77,0.00,,,0.08,Wunderground v.1.15,2015-05-05 12:45:00,
2015-05-05 08:50:00,74.4,67.1,30.13,NE,52,0.0,0.0,78,0.00,,,0.08,Wunderground v.1.15,2015-05-05 12:50:00,
2015-05-05 08:55:00,74.6,67.3,30.14,East,94,0.0,0.0,78,0.00,,,0.08,Wunderground v.1.15,2015-05-05 12:55:00,
2015-05-05 09:00:00,74.7,67.4,30.14,ENE,59,0.0,0.0,78,0.00,,,0.08,Wunderground v.1.15,2015-05-05 13:00:00,
2015-05-05 09:10:00,75.0,68.0,30.14,NE,49,0.0,0.0,79,0.00,,,0.08,Wunderground v.1.15,2015-05-05 13:10:00,
2015-05-05 09:15:00,75.1,68.1,30.14,NE,54,0.0,0.0,79,0.00,,,0.08,Wunderground v.1.15,2015-05-05 13:15:00,
2015-05-05 09:20:00,75.2,67.9,30.14,NNE,19,0.0,0.0,78,0.00,,,0.08,Wunderground v.1.15,2015-05-05 13:20:00,
2015-05-05 09:25:00,75.3,68.0,30.14,ESE,119,0.0,0.0,78,0.00,,,0.08,Wunderground v.1.15,2015-05-05 13:25:00,
2015-05-05 09:30:00,75.3,68.3,30.14,West,275,0.0,0.0,79,0.00,,,0.08,Wunderground v.1.15,2015-05-05 13:30:00,
2015-05-05 09:35:00,75.5,68.5,30.14,NNE,21,0.0,0.0,79,0.00,,,0.08,Wunderground v.1.15,2015-05-05 13:35:00,
2015-05-05 09:40:00,75.7,69.1,30.14,East,82,0.0,0.0,80,0.00,,,0.08,Wunderground v.1.15,2015-05-05 13:40:00,
2015-05-05 09:45:00,75.8,69.2,30.15,NNE,25,0.0,0.0,80,0.00,,,0.08,Wunderground v.1.15,2015-05-05 13:45:00,
2015-05-05 09:55:00,76.1,69.1,30.14,SE,129,0.0,0.0,79,0.00,,,0.08,Wunderground v.1.15,2015-05-05 13:55:00,
2015-05-05 10:00:00,76.2,69.6,30.14,ENE,71,0.0,0.0,80,0.00,,,0.08,Wunderground v.1.15,2015-05-05 14:00:00,
2015-05-05 10:10:00,76.2,69.6,30.13,ENE,62,0.0,0.0,80,0.00,,,0.08,Wunderground v.1.15,2015-05-05 14:10:00,
2015-05-05 10:15:00,76.2,69.6,30.13,ENE,64,0.0,0.0,80,0.00,,,0.08,Wunderground v.1.15,2015-05-05 14:15:00,
2015-05-05 10:20:00,76.3,70.0,30.13,ENE,63,0.0,0.0,81,0.00,,,0.08,Wunderground v.1.15,2015-05-05 14:20:00,
2015-05-05 10:30:00,76.9,70.3,30.13,ENE,63,0.0,0.0,80,0.00,,,0.08,Wunderground v.1.15,2015-05-05 14:30:00,
2015-05-05 10:35:00,77.2,70.2,30.13,NE,40,0.0,5.0,79,0.00,,,0.08,Wunderground v.1.15,2015-05-05 14:35:00,
2015-05-05 10:40:00,77.4,70.4,30.13,ENE,61,0.0,0.0,79,0.00,,,0.08,Wunderground v.1.15,2015-05-05 14:40:00,
2015-05-05 10:45:00,77.6,70.6,30.13,ENE,63,0.0,0.0,79,0.00,,,0.08,Wunderground v.1.15,2015-05-05 14:45:00,
2015-05-05 10:50:00,77.7,70.3,30.13,North,360,0.0,0.0,78,0.00,,,0.08,Wunderground v.1.15,2015-05-05 14:50:00,
2015-05-05 10:55:00,77.7,70.3,30.14,NNE,28,0.0,0.0,78,0.00,,,0.08,Wunderground v.1.15,2015-05-05 14:55:00,
2015-05-05 11:00:00,76.4,70.1,30.14,East,96,0.0,0.0,81,0.00,,,0.09,Wunderground v.1.15,2015-05-05 15:00:00,
2015-05-05 11:10:00,75.6,70.8,30.14,East,98,0.0,0.0,85,0.00,,,0.09,Wunderground v.1.15,2015-05-05 15:10:00,
2015-05-05 11:15:00,75.7,71.2,30.14,East,97,0.0,0.0,86,0.00,,,0.09,Wunderground v.1.15,2015-05-05 15:15:00,
2015-05-05 11:20:00,75.9,71.4,30.14,SE,125,0.0,0.0,86,0.00,,,0.09,Wunderground v.1.15,2015-05-05 15:20:00,
2015-05-05 11:25:00,76.2,71.7,30.14,ESE,109,0.0,0.0,86,0.00,,,0.09,Wunderground v.1.15,2015-05-05 15:25:00,
2015-05-05 11:30:00,76.4,71.6,30.14,ESE,110,0.0,0.0,85,0.00,,,0.09,Wunderground v.1.15,2015-05-05 15:30:00,
2015-05-05 11:35:00,76.7,71.5,30.14,ESE,111,0.0,0.0,84,0.00,,,0.09,Wunderground v.1.15,2015-05-05 15:35:00,
2015-05-05 11:45:00,77.1,71.2,30.15,ESE,117,0.0,0.0,82,0.00,,,0.09,Wunderground v.1.15,2015-05-05 15:45:00,
2015-05-05 11:50:00,77.1,70.8,30.15,ENE,76,0.0,0.0,81,0.00,,,0.09,Wunderground v.1.15,2015-05-05 15:50:00,
2015-05-05 11:55:00,77.3,70.6,30.15,East,79,0.0,0.0,80,0.00,,,0.09,Wunderground v.1.15,2015-05-05 15:55:00,
2015-05-05 12:00:00,77.5,71.2,30.14,East,79,0.0,0.0,81,0.00,,,0.09,Wunderground v.1.15,2015-05-05 16:00:00,
2015-05-05 12:10:00,77.5,71.2,30.14,East,98,0.0,0.0,81,0.00,,,0.09,Wunderground v.1.15,2015-05-05 16:10:00,
2015-05-05 12:20:00,77.3,71.4,30.14,ESE,110,0.0,0.0,82,0.00,,,0.09,Wunderground v.1.15,2015-05-05 16:20:00,
2015-05-05 12:25:00,77.3,71.4,30.14,ESE,117,0.0,0.0,82,0.00,,,0.09,Wunderground v.1.15,2015-05-05 16:25:00,
2015-05-05 12:30:00,77.4,71.1,30.14,ESE,113,0.0,0.0,81,0.00,,,0.09,Wunderground v.1.15,2015-05-05 16:30:00,
2015-05-05 12:35:00,77.7,71.8,30.14,ESE,113,0.0,0.0,82,0.00,,,0.09,Wunderground v.1.15,2015-05-05 16:35:00,
2015-05-05 12:40:00,77.9,71.6,30.14,ENE,74,0.0,0.0,81,0.00,,,0.09,Wunderground v.1.15,2015-05-05 16:40:00,
2015-05-05 12:45:00,77.9,71.6,30.14,ENE,74,0.0,0.0,81,0.00,,,0.09,Wunderground v.1.15,2015-05-05 16:45:00,
2015-05-05 12:50:00,77.9,71.2,30.14,SSE,152,0.0,0.0,80,0.00,,,0.09,Wunderground v.1.15,2015-05-05 16:50:00,
2015-05-05 13:00:00,77.8,71.1,30.14,ENE,69,0.0,0.0,80,0.00,,,0.09,Wunderground v.1.15,2015-05-05 17:00:00,
2015-05-05 13:10:00,77.7,71.4,30.14,ESE,120,0.0,0.0,81,0.00,,,0.09,Wunderground v.1.15,2015-05-05 17:10:00,
2015-05-05 13:15:00,77.7,71.0,30.14,ESE,120,0.0,0.0,80,0.00,,,0.09,Wunderground v.1.15,2015-05-05 17:15:00,
2015-05-05 13:20:00,77.4,70.4,30.14,ESE,117,0.0,0.0,79,0.00,,,0.09,Wunderground v.1.15,2015-05-05 17:20:00,